createdAt,value
2023-04-25T03:24:40.516Z,23.30
2023-04-25T03:27:07.581Z,22.88
2023-04-25T03:29:34.879Z,28.52
2023-04-25T03:32:02.089Z,26.88
2023-04-25T03:34:29.484Z,30.77
2023-04-25T03:36:56.832Z,25.25
2023-04-25T03:39:23.651Z,26.02
2023-04-25T03:41:50.755Z,21.95
2023-04-25T03:44:17.907Z,22.40
2023-04-25T03:46:45.195Z,21.60
2023-04-25T03:49:12.097Z,23.02
2023-04-25T03:51:39.179Z,27.45
2023-04-25T03:54:06.059Z,27.30
2023-04-25T03:56:32.839Z,29.08
2023-04-25T03:59:00.048Z,25.80
2023-04-25T04:01:27.021Z,24.63
2023-04-25T04:03:54.735Z,23.20
2023-04-25T04:06:22.202Z,34.08
2023-04-25T04:08:49.115Z,28.15
2023-04-25T04:11:16.260Z,25.88
2023-04-25T04:13:43.429Z,36.58
2023-04-25T04:16:11.065Z,24.58
2023-04-25T04:18:38.127Z,23.50
2023-04-25T04:21:05.346Z,25.77
2023-04-25T04:23:32.383Z,19.20
2023-04-25T04:25:59.660Z,26.48
2023-04-25T04:28:27.858Z,28.92
2023-04-25T04:30:54.984Z,26.15
2023-04-25T04:33:22.370Z,29.05
2023-04-25T04:35:49.607Z,28.95
2023-04-25T04:38:16.836Z,26.38
2023-04-25T04:40:44.195Z,27.58
2023-04-25T04:43:11.453Z,29.60
2023-04-25T04:45:41.485Z,21.30
2023-04-25T04:48:08.437Z,29.30
2023-04-25T04:50:37.586Z,28.70
2023-04-25T04:53:05.904Z,24.77
2023-04-25T04:55:32.711Z,27.10
2023-04-25T04:57:59.741Z,27.33
2023-04-25T05:00:29.705Z,26.67
2023-04-25T05:02:58.279Z,26.23
2023-04-25T05:05:27.565Z,23.65
2023-04-25T05:07:54.744Z,21.50
2023-04-25T05:10:21.798Z,23.48
2023-04-25T05:12:50.186Z,27.63
2023-04-25T05:15:17.908Z,19.42
2023-04-25T05:17:44.772Z,26.80
2023-04-25T05:20:11.896Z,25.33
2023-04-25T05:22:39.147Z,26.73
2023-04-25T05:25:06.563Z,25.33
2023-04-25T05:27:33.605Z,26.48
2023-04-25T05:30:01.225Z,30.70
2023-04-25T05:32:28.617Z,27.25
2023-04-25T05:34:55.646Z,22.23
2023-04-25T05:37:23.768Z,33.17
2023-04-25T05:39:50.723Z,20.05
2023-04-25T05:42:18.173Z,35.05
2023-04-25T05:44:45.518Z,28.20
2023-04-25T05:47:12.372Z,27.75
2023-04-25T05:49:39.669Z,25.75
2023-04-25T05:52:06.616Z,30.95
2023-04-25T05:54:35.984Z,41.22
2023-04-25T05:57:03.944Z,39.13
2023-04-25T05:59:30.858Z,34.20
2023-04-25T06:01:57.830Z,26.00
2023-04-25T06:04:26.640Z,32.95
2023-04-25T06:06:53.708Z,30.65
2023-04-25T06:09:20.880Z,34.10
2023-04-25T06:11:48.080Z,27.73
2023-04-25T06:14:16.945Z,31.50
2023-04-25T06:16:43.760Z,25.88
2023-04-25T06:19:10.809Z,26.95
2023-04-25T06:21:37.959Z,25.58
2023-04-25T06:24:05.941Z,28.65
2023-04-25T06:26:32.997Z,24.70
2023-04-25T06:28:59.987Z,26.27
2023-04-25T06:31:27.105Z,32.42
2023-04-25T06:33:56.097Z,43.95
2023-04-25T06:36:27.184Z,31.42
2023-04-25T06:38:54.475Z,28.98
2023-04-25T06:41:21.984Z,43.50
2023-04-25T06:43:48.998Z,33.83
2023-04-25T06:46:16.380Z,32.55
2023-04-25T06:48:43.334Z,27.65
2023-04-25T06:51:13.084Z,34.50
2023-04-25T06:53:40.871Z,34.85
2023-04-25T06:56:07.747Z,29.95
2023-04-25T06:58:34.639Z,30.25
2023-04-25T07:01:01.669Z,33.80
2023-04-25T07:03:28.630Z,27.65
2023-04-25T07:05:56.103Z,29.83
2023-04-25T07:08:22.997Z,25.60
2023-04-25T07:10:50.268Z,32.67
2023-04-25T07:13:17.106Z,29.42
2023-04-25T07:15:45.079Z,27.40
2023-04-25T07:18:12.721Z,29.33
2023-04-25T07:20:39.999Z,33.60
2023-04-25T07:23:06.775Z,34.33
2023-04-25T07:25:33.884Z,26.58
2023-04-25T07:28:01.111Z,24.13
2023-04-25T07:30:28.609Z,21.80
2023-04-25T07:32:55.723Z,27.33
2023-04-25T07:35:22.590Z,17.42
2023-04-25T07:37:49.754Z,26.20
2023-04-25T07:40:17.628Z,22.27
2023-04-25T07:42:44.866Z,24.35
2023-04-25T07:45:12.134Z,22.40
2023-04-25T07:47:39.626Z,18.17
2023-04-25T07:50:07.227Z,19.63
2023-04-25T07:52:33.951Z,18.52
2023-04-25T07:55:03.969Z,28.45
2023-04-25T07:57:31.340Z,22.05
2023-04-25T07:59:58.613Z,19.17
2023-04-25T08:02:27.511Z,21.05
2023-04-25T08:04:54.438Z,24.38
2023-04-25T08:07:21.759Z,20.15
2023-04-25T08:09:48.627Z,18.35
2023-04-25T08:12:15.805Z,17.20
2023-04-25T08:14:42.601Z,26.10
2023-04-25T08:17:10.238Z,22.10
2023-04-25T08:19:37.367Z,26.83
2023-04-25T08:22:04.549Z,22.65
2023-04-25T08:24:31.736Z,25.40
2023-04-25T08:27:00.038Z,16.70
2023-04-25T08:29:27.359Z,11.85
2023-04-25T08:31:54.183Z,17.88
2023-04-25T08:34:21.685Z,14.98
2023-04-25T08:36:48.621Z,21.35
2023-04-25T08:39:15.503Z,16.90
2023-04-25T08:41:42.844Z,21.83
2023-04-25T08:44:12.137Z,14.05
2023-04-25T08:46:42.663Z,24.85
2023-04-25T08:49:10.749Z,18.48
2023-04-25T08:51:45.112Z,16.13
2023-04-25T08:54:30.930Z,23.80
2023-04-25T08:57:05.729Z,10.85
2023-04-25T08:59:33.950Z,16.70
2023-04-25T09:02:02.045Z,18.40
2023-04-25T09:04:31.892Z,14.00
2023-04-25T09:06:59.596Z,17.75
2023-04-25T09:09:30.553Z,19.00
2023-04-25T09:11:58.351Z,16.65
2023-04-25T09:14:27.094Z,19.25
2023-04-25T09:16:56.846Z,19.33
2023-04-25T09:19:38.720Z,15.63
2023-04-25T09:22:07.044Z,13.05
2023-04-25T09:24:52.417Z,14.65
2023-04-25T09:27:21.850Z,15.43
2023-04-25T09:29:49.043Z,10.35
2023-04-25T09:32:24.508Z,9.70
2023-04-25T09:35:01.671Z,12.07
2023-04-25T09:37:30.931Z,14.38
2023-04-25T09:40:04.416Z,13.48
2023-04-25T09:42:33.017Z,13.80
2023-04-25T09:45:02.991Z,8.43
2023-04-25T09:47:31.006Z,11.43
2023-04-25T09:49:58.378Z,12.27
2023-04-25T09:52:26.412Z,10.40
2023-04-25T09:54:53.717Z,11.57
2023-04-25T09:57:25.013Z,17.00
2023-04-25T09:59:56.488Z,11.90
2023-04-25T10:02:27.181Z,14.20
2023-04-25T10:04:57.785Z,10.27
2023-04-25T10:07:29.499Z,15.98
2023-04-25T10:10:01.552Z,13.43
2023-04-25T10:12:28.922Z,11.07
2023-04-25T10:14:58.300Z,14.88
2023-04-25T10:17:25.465Z,11.65
2023-04-25T10:19:53.160Z,12.40
2023-04-25T10:22:30.120Z,13.82
2023-04-25T10:24:57.816Z,9.30
2023-04-25T10:27:25.007Z,9.27
2023-04-25T10:30:20.100Z,11.07
2023-04-25T10:32:49.282Z,8.73
2023-04-25T10:35:25.194Z,8.85
2023-04-25T10:38:08.639Z,16.13
2023-04-25T10:40:35.520Z,17.38
2023-04-25T10:43:57.669Z,11.70
2023-04-25T10:46:27.714Z,14.90
2023-04-25T10:49:05.223Z,14.38
2023-04-25T10:51:54.251Z,7.97
2023-04-25T10:54:24.224Z,15.90
2023-04-25T10:56:53.157Z,14.05
2023-04-25T10:59:22.514Z,10.15
2023-04-25T11:01:54.489Z,19.13
2023-04-25T11:04:25.338Z,16.80
2023-04-25T11:07:30.346Z,13.27
2023-04-25T11:10:02.385Z,12.82
2023-04-25T11:12:33.080Z,12.13
2023-04-25T11:15:08.411Z,18.70
2023-04-25T11:17:37.132Z,10.60
2023-04-25T11:20:11.584Z,13.32
2023-04-25T11:22:42.088Z,15.90
2023-04-25T11:25:10.653Z,12.65
2023-04-25T11:27:54.957Z,19.27
2023-04-25T11:30:23.193Z,12.40
2023-04-25T11:32:50.260Z,14.85
2023-04-25T11:35:17.689Z,12.45
2023-04-25T11:37:45.166Z,14.88
2023-04-25T11:40:12.828Z,15.18
2023-04-25T11:42:44.233Z,9.75
2023-04-25T11:45:11.811Z,15.75
2023-04-25T11:47:41.740Z,12.48
2023-04-25T11:50:09.905Z,12.20
2023-04-25T11:52:44.380Z,14.90
2023-04-25T11:55:19.788Z,14.93
2023-04-25T11:57:50.409Z,15.85
2023-04-25T12:00:22.380Z,13.38
2023-04-25T12:02:54.009Z,20.70
2023-04-25T12:05:32.087Z,14.35
2023-04-25T12:07:59.426Z,8.45
2023-04-25T12:10:27.779Z,10.43
2023-04-25T12:12:55.209Z,11.40
2023-04-25T12:15:27.292Z,10.00
2023-04-25T12:17:56.600Z,9.25
2023-04-25T12:20:26.922Z,10.63
2023-04-25T12:23:00.470Z,11.02
2023-04-25T12:25:40.637Z,10.18
2023-04-25T12:28:29.252Z,9.52
2023-04-25T12:30:57.685Z,10.43
2023-04-25T12:33:25.670Z,7.57
2023-04-25T12:35:53.695Z,12.80
2023-04-25T12:38:32.392Z,10.55
2023-04-25T12:40:59.746Z,9.93
2023-04-25T12:43:27.349Z,10.38
2023-04-25T12:45:55.626Z,11.55
2023-04-25T12:48:23.400Z,8.07
2023-04-25T12:50:52.799Z,9.73
2023-04-25T12:53:21.876Z,11.45
2023-04-25T12:55:49.682Z,10.02
2023-04-25T12:58:18.502Z,12.20
2023-04-25T13:00:46.070Z,11.13
2023-04-25T13:06:00.127Z,10.07
2023-04-25T13:08:27.452Z,8.00
2023-04-25T13:10:54.530Z,8.52
2023-04-25T13:13:21.469Z,12.38
2023-04-25T13:15:48.897Z,5.32
2023-04-25T13:18:18.250Z,12.23
2023-04-25T13:20:45.614Z,12.35
2023-04-25T13:23:12.827Z,8.05
2023-04-25T13:25:40.063Z,8.82
2023-04-25T13:28:07.341Z,9.43
2023-04-25T13:30:34.947Z,11.13
2023-04-25T13:33:04.322Z,12.23
2023-04-25T13:35:34.543Z,12.23
2023-04-25T13:38:03.472Z,15.93
2023-04-25T13:40:30.928Z,7.70
2023-04-25T13:42:58.031Z,8.75
2023-04-25T13:45:25.822Z,6.28
2023-04-25T13:47:52.806Z,6.13
2023-04-25T13:50:19.754Z,10.63
2023-04-25T13:52:47.005Z,10.85
2023-04-25T13:55:13.947Z,9.85
2023-04-25T13:57:43.038Z,8.27
2023-04-25T14:00:13.356Z,10.55
2023-04-25T14:02:40.353Z,8.63
2023-04-25T14:05:09.091Z,9.88
2023-04-25T14:07:38.536Z,6.57
2023-04-25T14:10:07.006Z,11.55
2023-04-25T14:12:34.455Z,7.50
2023-04-25T14:15:03.255Z,9.25
2023-04-25T14:17:30.491Z,10.70
2023-04-25T14:19:57.710Z,5.18
2023-04-25T14:22:24.692Z,9.30
2023-04-25T14:24:52.227Z,9.50
2023-04-25T14:27:20.921Z,7.43
2023-04-25T14:29:48.753Z,7.85
2023-04-25T14:32:17.125Z,12.25
2023-04-25T14:34:45.425Z,12.75
2023-04-25T14:37:12.270Z,9.38
2023-04-25T14:39:39.194Z,7.93
2023-04-25T14:42:06.235Z,11.32
2023-04-25T14:44:41.710Z,9.43
2023-04-25T14:47:09.829Z,5.90
2023-04-25T14:49:36.901Z,6.82
2023-04-25T14:52:06.744Z,9.55
2023-04-25T14:54:34.162Z,6.90
2023-04-25T14:57:02.717Z,5.07
2023-04-25T14:59:29.842Z,7.00
2023-04-25T15:01:59.774Z,8.50
2023-04-25T15:04:27.660Z,4.18
2023-04-25T15:06:55.169Z,7.10
2023-04-25T15:09:24.046Z,20.83
2023-04-25T15:11:52.135Z,7.30
2023-04-25T15:14:19.505Z,9.20
2023-04-25T15:16:47.119Z,8.80
2023-04-25T15:19:14.379Z,4.80
2023-04-25T15:21:41.502Z,6.50
2023-04-25T15:24:19.142Z,4.68
2023-04-25T15:26:47.369Z,4.30
2023-04-25T15:29:14.265Z,6.68
2023-04-25T15:31:41.344Z,5.72
2023-04-25T15:34:08.160Z,4.78
2023-04-25T15:36:35.105Z,7.10
2023-04-25T15:39:03.700Z,6.88
2023-04-25T15:41:30.853Z,6.47
2023-04-25T15:44:00.341Z,3.47
2023-04-25T15:46:27.511Z,7.05
2023-04-25T15:48:54.548Z,3.85
2023-04-25T15:51:21.729Z,4.90
2023-04-25T15:53:48.920Z,5.80
2023-04-25T15:56:16.021Z,4.25
2023-04-25T15:58:42.831Z,6.10
2023-04-25T16:01:09.872Z,5.03
2023-04-25T16:03:37.079Z,6.57
2023-04-25T16:06:04.686Z,7.13
2023-04-25T16:08:34.346Z,7.38
2023-04-25T16:11:02.094Z,6.55
2023-04-25T16:13:30.295Z,7.80
2023-04-25T16:15:57.737Z,7.45
2023-04-25T16:18:26.066Z,5.47
2023-04-25T16:20:52.964Z,6.60
2023-04-25T16:23:19.847Z,4.68
2023-04-25T16:25:47.071Z,6.18
2023-04-25T16:28:13.907Z,4.65
2023-04-25T16:30:41.305Z,6.20
2023-04-25T16:33:10.885Z,6.38
2023-04-25T16:35:37.737Z,4.90
2023-04-25T16:38:05.368Z,3.72
2023-04-25T16:40:32.154Z,6.35
2023-04-25T16:42:58.967Z,7.63
2023-04-25T16:45:27.194Z,5.10
2023-04-25T16:47:54.184Z,6.00
2023-04-25T16:50:21.241Z,5.18
2023-04-25T16:52:48.517Z,4.50
2023-04-25T16:55:15.621Z,7.63
2023-04-25T16:57:42.535Z,5.07
2023-04-25T17:00:10.080Z,8.68
2023-04-25T17:02:37.184Z,9.82
2023-04-25T17:05:05.636Z,5.47
2023-04-25T17:07:32.544Z,6.05
2023-04-25T17:10:00.114Z,4.60
2023-04-25T17:12:27.238Z,4.78
2023-04-25T17:14:54.854Z,7.47
2023-04-25T17:17:31.659Z,10.52
2023-04-25T17:19:58.669Z,7.22
2023-04-25T17:22:26.026Z,4.60
2023-04-25T17:24:52.917Z,6.32
2023-04-25T17:27:23.394Z,5.90
2023-04-25T17:29:50.263Z,7.97
2023-04-25T17:32:17.619Z,8.82
2023-04-25T17:34:46.158Z,6.60
2023-04-25T17:37:16.567Z,8.10
2023-04-25T17:39:43.857Z,8.43
2023-04-25T17:42:11.938Z,6.93
2023-04-25T17:44:39.604Z,8.15
2023-04-25T17:47:08.510Z,5.38
2023-04-25T17:49:36.471Z,6.03
2023-04-25T17:52:03.984Z,4.97
2023-04-25T17:54:31.006Z,7.68
2023-04-25T17:56:58.253Z,7.63
2023-04-25T17:59:25.194Z,11.07
2023-04-25T18:01:52.224Z,7.53
2023-04-25T18:04:19.178Z,12.15
2023-04-25T18:06:46.459Z,6.53
2023-04-25T18:09:17.198Z,7.05
2023-04-25T18:11:45.579Z,5.90
2023-04-25T18:14:14.608Z,9.48
2023-04-25T18:16:45.258Z,8.75
2023-04-25T18:19:15.590Z,6.13
2023-04-25T18:21:46.284Z,7.78
2023-04-25T18:24:13.704Z,7.43
2023-04-25T21:24:50.745Z,11.60
2023-04-25T21:27:18.049Z,9.53
2023-04-25T21:29:46.360Z,12.52
2023-04-25T21:32:23.530Z,7.70
2023-04-25T21:34:51.026Z,10.35
2023-04-25T21:37:19.938Z,15.57
2023-04-25T21:39:48.626Z,11.65
2023-04-25T21:42:15.677Z,15.32
2023-04-25T21:44:42.928Z,11.15
2023-04-25T21:47:10.190Z,11.02
2023-04-25T21:49:37.357Z,12.75
2023-04-25T21:52:07.612Z,10.85
2023-04-25T21:54:37.553Z,8.95
2023-04-25T21:57:04.864Z,16.15
2023-04-25T21:59:33.203Z,7.45
2023-04-25T22:02:00.423Z,8.32
2023-04-25T22:04:28.088Z,7.97
2023-04-25T22:06:58.381Z,11.57
2023-04-25T22:09:34.746Z,7.00
2023-04-25T22:12:08.497Z,10.82
2023-04-25T22:14:39.833Z,10.43
2023-04-25T22:17:07.553Z,5.43
2023-04-25T22:19:35.382Z,8.73
2023-04-25T22:22:02.872Z,6.78
2023-04-25T22:24:33.430Z,11.95
2023-04-25T22:27:05.346Z,9.93
2023-04-25T22:29:32.913Z,9.90
2023-04-25T22:32:00.099Z,10.70
2023-04-25T22:34:30.861Z,9.88
2023-04-25T22:36:58.698Z,16.70
2023-04-25T22:39:26.154Z,14.23
2023-04-25T22:41:54.571Z,10.80
2023-04-25T22:44:25.839Z,12.02
2023-04-25T22:47:03.417Z,9.55
2023-04-25T22:49:30.745Z,14.02
2023-04-25T22:52:01.951Z,9.68
2023-04-25T22:54:29.321Z,14.02
2023-04-25T22:57:01.954Z,11.95
2023-04-25T22:59:39.852Z,12.75
2023-04-25T23:02:08.941Z,9.65
2023-04-25T23:04:38.869Z,17.80
2023-04-25T23:07:09.499Z,14.18
2023-04-25T23:09:36.995Z,8.73
2023-04-25T23:12:05.330Z,8.73
2023-04-25T23:14:36.332Z,17.13
2023-04-25T23:17:03.744Z,10.40
2023-04-25T23:19:31.477Z,14.02
2023-04-25T23:22:05.482Z,11.27
2023-04-25T23:24:36.535Z,8.35
2023-04-25T23:27:03.833Z,10.55
2023-04-25T23:29:34.160Z,8.10
2023-04-25T23:32:02.437Z,5.30
2023-04-25T23:34:34.030Z,9.63
2023-04-25T23:37:01.866Z,11.05
2023-04-25T23:39:29.060Z,9.35
2023-04-25T23:41:57.104Z,14.73
2023-04-25T23:44:24.024Z,7.18
2023-04-25T23:46:51.899Z,9.25
2023-04-25T23:49:19.013Z,18.02
2023-04-25T23:51:46.550Z,10.52
2023-04-25T23:54:15.676Z,10.23
2023-04-25T23:56:42.529Z,14.10
2023-04-25T23:59:09.651Z,9.48
